Time;durP1;ratioP1;P1;durP2;ratioP2;P2;SDS_P1;SDS_P2;PMS_P1;PMS_P2;Temp;Humidity;BMP_temperature;BMP_pressure;BME280_temperature;BME280_humidity;BME280_pressure;Samples;Min_cycle;Max_cycle;Signal;HPM_P1;HPM_P2
2021/07/24 00:00:21;;;;;;;;;21.67;20.33;;;;;;;;8894230;40;10494;-66
2021/07/24 00:06:24;;;;;;;;;18.50;17.00;;;;;;;;8895706;40;10562;-65
2021/07/24 00:12:27;;;;;;;;;17.50;17.50;;;;;;;;8894502;40;10699;-66
2021/07/24 00:18:30;;;;;;;;;23.00;18.25;;;;;;;;8894634;40;10978;-67
2021/07/24 00:24:32;;;;;;;;;22.50;22.50;;;;;;;;8894211;40;10603;-65
2021/07/24 00:30:40;;;;;;;;;19.00;18.50;;;;;;;;8894222;40;10636;-66
2021/07/24 00:36:49;;;;;;;;;15.00;15.00;;;;;;;;8884789;40;10519;-67
2021/07/24 00:42:53;;;;;;;;;24.50;18.50;;;;;;;;8893788;40;10727;-66
2021/07/24 00:49:02;;;;;;;;;17.00;14.00;;;;;;;;8876468;40;10828;-67
2021/07/24 00:55:23;;;;;;;;;15.25;14.75;;;;;;;;8893780;40;11412;-66
2021/07/24 01:01:25;;;;;;;;;16.00;15.00;;;;;;;;8883783;40;10517;-66
2021/07/24 01:07:32;;;;;;;;;20.25;19.50;;;;;;;;8894238;40;10600;-66
2021/07/24 01:13:35;;;;;;;;;19.00;18.50;;;;;;;;8884881;40;10756;-66
2021/07/24 01:19:39;;;;;;;;;18.50;18.50;;;;;;;;8884491;40;11988;-66
2021/07/24 01:25:51;;;;;;;;;21.00;15.75;;;;;;;;8883260;40;10836;-66
2021/07/24 01:31:56;;;;;;;;;23.25;18.75;;;;;;;;8886301;40;10537;-65
2021/07/24 01:38:00;;;;;;;;;18.75;15.25;;;;;;;;8887282;40;10609;-67
2021/07/24 01:44:04;;;;;;;;;22.75;16.50;;;;;;;;8887223;40;10882;-66
2021/07/24 01:56:32;;;;;;;;;15.75;15.00;;;;;;;;8896279;40;10684;-66
2021/07/24 02:02:36;;;;;;;;;14.25;13.00;;;;;;;;8886783;40;10610;-67
2021/07/24 02:08:45;;;;;;;;;14.50;13.75;;;;;;;;8886532;40;10567;-66
2021/07/24 02:14:49;;;;;;;;;15.33;15.33;;;;;;;;8886708;40;10435;-66
2021/07/24 02:20:56;;;;;;;;;17.75;15.75;;;;;;;;8887590;40;10663;-66
2021/07/24 02:26:59;;;;;;;;;20.33;17.67;;;;;;;;8887988;40;10377;-65
2021/07/24 02:33:13;;;;;;;;;14.67;14.67;;;;;;;;8886570;40;10249;-67
2021/07/24 02:39:16;;;;;;;;;16.75;15.75;;;;;;;;8895740;40;10688;-67
2021/07/24 02:45:18;;;;;;;;;19.00;19.00;;;;;;;;8895775;40;10472;-66
2021/07/24 02:51:21;;;;;;;;;15.67;14.67;;;;;;;;8885877;40;10410;-67
2021/07/24 02:57:25;;;;;;;;;12.00;9.00;;;;;;;;8878473;40;10774;-65
2021/07/24 03:03:28;;;;;;;;;14.50;14.50;;;;;;;;8895696;40;10594;-66
2021/07/24 03:09:31;;;;;;;;;16.75;15.50;;;;;;;;8894961;40;10743;-66
2021/07/24 03:15:34;;;;;;;;;17.67;17.67;;;;;;;;8896372;40;10382;-66
2021/07/24 03:21:36;;;;;;;;;17.00;17.00;;;;;;;;8895251;40;10103;-67
2021/07/24 03:27:38;;;;;;;;;16.33;14.67;;;;;;;;8894880;40;10697;-67
2021/07/24 03:33:40;;;;;;;;;17.00;17.00;;;;;;;;8894910;40;10402;-66
2021/07/24 03:39:43;;;;;;;;;16.25;14.25;;;;;;;;8896149;40;10693;-66
2021/07/24 03:45:45;;;;;;;;;17.00;15.33;;;;;;;;8895750;40;10386;-66
2021/07/24 03:51:47;;;;;;;;;21.75;19.75;;;;;;;;8894664;40;10841;-67
2021/07/24 03:57:51;;;;;;;;;17.25;14.75;;;;;;;;8894471;40;10674;-66
2021/07/24 04:03:54;;;;;;;;;17.00;13.75;;;;;;;;8885771;40;10732;-66
2021/07/24 04:09:56;;;;;;;;;17.33;17.33;;;;;;;;8894343;40;10238;-66
2021/07/24 04:15:59;;;;;;;;;16.00;15.00;;;;;;;;8895372;40;10623;-66
2021/07/24 04:22:01;;;;;;;;;16.00;15.00;;;;;;;;8894198;40;10814;-65
2021/07/24 04:28:04;;;;;;;;;20.25;18.50;;;;;;;;8894111;40;10765;-67
2021/07/24 04:34:07;;;;;;;;;16.25;16.25;;;;;;;;8895133;40;10459;-66
2021/07/24 04:40:09;;;;;;;;;17.75;15.00;;;;;;;;8893941;40;10393;-67
2021/07/24 04:46:12;;;;;;;;;12.50;12.50;;;;;;;;8894338;40;10548;-67
2021/07/24 04:52:19;;;;;;;;;17.00;15.75;;;;;;;;8893183;40;10362;-66
2021/07/24 04:58:21;;;;;;;;;14.50;13.25;;;;;;;;8893541;40;10509;-67
2021/07/24 05:04:24;;;;;;;;;15.50;14.50;;;;;;;;8894249;40;10339;-67
2021/07/24 05:10:26;;;;;;;;;15.50;15.25;;;;;;;;8897250;40;10569;-66
2021/07/24 05:16:29;;;;;;;;;12.25;12.25;;;;;;;;8888826;40;10392;-67
2021/07/24 05:22:32;;;;;;;;;18.00;13.50;;;;;;;;8897064;40;11360;-66
2021/07/24 05:28:34;;;;;;;;;15.50;15.50;;;;;;;;8898373;40;10388;-66
2021/07/24 05:34:36;;;;;;;;;17.00;15.50;;;;;;;;8887506;40;10506;-65
2021/07/24 05:40:38;;;;;;;;;15.75;14.25;;;;;;;;8896823;40;10254;-67
2021/07/24 05:46:43;;;;;;;;;11.25;11.25;;;;;;;;8897918;40;10304;-66
2021/07/24 05:52:45;;;;;;;;;11.50;11.00;;;;;;;;8896494;40;10316;-67
2021/07/24 05:58:47;;;;;;;;;11.25;11.25;;;;;;;;8896944;40;10244;-64
2021/07/24 06:04:50;;;;;;;;;10.00;10.00;;;;;;;;8896282;40;10251;-67
2021/07/24 06:10:52;;;;;;;;;10.25;9.00;;;;;;;;8896406;40;10236;-66
2021/07/24 06:16:55;;;;;;;;;9.75;9.75;;;;;;;;8896846;40;10248;-67
2021/07/24 06:22:57;;;;;;;;;11.25;11.25;;;;;;;;8896324;40;10218;-66
2021/07/24 06:29:00;;;;;;;;;9.75;9.75;;;;;;;;8886660;40;10444;-66
2021/07/24 06:35:02;;;;;;;;;13.00;13.00;;;;;;;;8895778;40;10455;-67
2021/07/24 06:41:05;;;;;;;;;12.75;12.50;;;;;;;;8895771;40;10289;-66
2021/07/24 06:47:08;;;;;;;;;11.25;11.25;;;;;;;;8896062;40;10286;-66
2021/07/24 06:53:11;;;;;;;;;13.75;13.75;;;;;;;;8886992;40;10560;-67
2021/07/24 06:59:13;;;;;;;;;14.25;13.25;;;;;;;;8895705;40;10311;-66
2021/07/24 07:05:17;;;;;;;;;19.75;16.50;;;;;;;;8896103;40;10258;-67
2021/07/24 07:11:21;;;;;;;;;12.00;11.00;;;;;;;;8895368;40;10229;-67
2021/07/24 07:17:23;;;;;;;;;14.00;13.25;;;;;;;;8895563;40;10255;-67
2021/07/24 07:23:25;;;;;;;;;13.00;12.75;;;;;;;;8895086;40;10829;-67
2021/07/24 07:29:28;;;;;;;;;20.25;17.25;;;;;;;;8894663;40;10279;-67
2021/07/24 07:35:30;;;;;;;;;13.25;12.25;;;;;;;;8895333;40;10753;-66
2021/07/24 07:41:32;;;;;;;;;12.50;12.00;;;;;;;;8894853;40;10512;-67
2021/07/24 07:47:38;;;;;;;;;18.25;14.75;;;;;;;;8885863;40;10278;-66
2021/07/24 07:53:40;;;;;;;;;11.50;10.00;;;;;;;;8894785;40;10413;-67
2021/07/24 07:59:43;;;;;;;;;10.50;10.50;;;;;;;;8886244;40;10253;-67
2021/07/24 08:05:46;;;;;;;;;8.25;8.25;;;;;;;;8895518;40;10236;-68
2021/07/24 08:11:50;;;;;;;;;8.25;6.75;;;;;;;;8894259;40;10433;-65
2021/07/24 08:17:53;;;;;;;;;11.00;11.00;;;;;;;;8895739;40;10273;-67
2021/07/24 08:23:56;;;;;;;;;8.75;8.75;;;;;;;;8895284;40;10385;-66
2021/07/24 08:29:58;;;;;;;;;8.75;6.75;;;;;;;;8896064;40;10189;-67
2021/07/24 08:36:00;;;;;;;;;9.50;9.25;;;;;;;;8894132;40;12226;-66
2021/07/24 08:42:04;;;;;;;;;9.25;9.25;;;;;;;;8893202;40;10267;-67
2021/07/24 08:48:06;;;;;;;;;8.50;7.25;;;;;;;;8895371;40;10171;-68
2021/07/24 08:54:09;;;;;;;;;12.75;11.50;;;;;;;;8894487;40;10482;-67
2021/07/24 09:00:14;;;;;;;;;11.75;10.00;;;;;;;;8893399;40;10319;-66
2021/07/24 09:06:22;;;;;;;;;11.25;11.25;;;;;;;;8895081;40;10223;-66
2021/07/24 09:12:26;;;;;;;;;10.00;9.75;;;;;;;;8893937;40;10188;-67
2021/07/24 09:18:31;;;;;;;;;21.00;17.75;;;;;;;;8893382;40;10474;-67
2021/07/24 09:24:33;;;;;;;;;12.75;10.75;;;;;;;;8894715;40;10271;-68
2021/07/24 09:30:35;;;;;;;;;8.75;8.00;;;;;;;;8893663;40;10214;-66
2021/07/24 09:36:38;;;;;;;;;9.75;9.75;;;;;;;;8893068;40;10444;-67
2021/07/24 09:42:40;;;;;;;;;13.25;11.25;;;;;;;;8892892;40;10244;-67
2021/07/24 09:48:46;;;;;;;;;11.25;10.75;;;;;;;;8883427;40;10844;-67
2021/07/24 09:54:48;;;;;;;;;12.00;12.00;;;;;;;;8896859;40;10281;-66
2021/07/24 10:01:01;;;;;;;;;12.25;12.25;;;;;;;;8896475;40;10413;-67
2021/07/24 10:07:05;;;;;;;;;12.00;11.75;;;;;;;;8896256;40;10302;-67
2021/07/24 10:13:15;;;;;;;;;11.50;11.50;;;;;;;;8895986;40;10263;-67
2021/07/24 10:19:19;;;;;;;;;11.25;10.25;;;;;;;;8896405;40;10223;-66
2021/07/24 10:25:22;;;;;;;;;11.75;11.75;;;;;;;;8886922;40;10175;-67
2021/07/24 10:31:29;;;;;;;;;11.00;8.75;;;;;;;;8896435;40;10220;-67
2021/07/24 10:37:44;;;;;;;;;14.25;13.00;;;;;;;;8887633;40;10329;-68
2021/07/24 10:44:21;;;;;;;;;12.00;11.50;;;;;;;;8896584;40;10347;-66
2021/07/24 10:50:23;;;;;;;;;13.00;9.75;;;;;;;;8886123;40;10219;-66
2021/07/24 10:56:39;;;;;;;;;11.75;11.75;;;;;;;;8895375;40;10271;-67
2021/07/24 11:02:48;;;;;;;;;9.50;9.50;;;;;;;;8895122;40;10203;-67
2021/07/24 11:09:01;;;;;;;;;10.75;10.75;;;;;;;;8895311;40;10448;-67
2021/07/24 11:15:04;;;;;;;;;11.75;10.50;;;;;;;;8895653;40;10239;-67
2021/07/24 11:21:07;;;;;;;;;10.50;10.50;;;;;;;;8895539;40;10185;-68
2021/07/24 11:27:12;;;;;;;;;9.50;9.00;;;;;;;;8895162;40;10257;-66
2021/07/24 11:33:19;;;;;;;;;9.25;9.25;;;;;;;;8895229;40;10279;-68
2021/07/24 11:39:29;;;;;;;;;14.00;14.00;;;;;;;;8895732;40;10228;-67
2021/07/24 11:45:36;;;;;;;;;9.00;8.75;;;;;;;;8895258;40;10976;-68
2021/07/24 11:51:39;;;;;;;;;11.50;11.50;;;;;;;;8894772;40;10513;-67
2021/07/24 11:57:42;;;;;;;;;12.75;11.00;;;;;;;;8894834;40;10277;-68
2021/07/24 12:03:44;;;;;;;;;10.50;10.00;;;;;;;;8885699;40;10225;-67
2021/07/24 12:09:47;;;;;;;;;9.00;9.00;;;;;;;;8884900;40;10429;-67
2021/07/24 12:15:58;;;;;;;;;12.00;9.75;;;;;;;;8894841;40;10512;-67
2021/07/24 12:22:20;;;;;;;;;15.50;15.50;;;;;;;;8894621;40;10256;-67
2021/07/24 12:28:29;;;;;;;;;15.00;15.00;;;;;;;;8894645;40;10753;-67
2021/07/24 12:34:36;;;;;;;;;15.00;13.75;;;;;;;;8894468;40;10714;-67
2021/07/24 12:40:39;;;;;;;;;15.75;13.50;;;;;;;;8894093;40;10837;-67
2021/07/24 12:46:42;;;;;;;;;13.25;12.75;;;;;;;;8884473;40;10209;-67
2021/07/24 12:52:50;;;;;;;;;11.50;11.50;;;;;;;;8893889;40;10422;-67
2021/07/24 12:58:53;;;;;;;;;14.00;14.00;;;;;;;;8884482;40;10441;-67
2021/07/24 13:04:56;;;;;;;;;13.75;12.00;;;;;;;;8884836;40;10398;-66
2021/07/24 13:10:58;;;;;;;;;9.50;9.50;;;;;;;;8893712;40;10267;-66
2021/07/24 13:17:00;;;;;;;;;10.75;10.50;;;;;;;;8883905;40;10959;-67
2021/07/24 13:23:02;;;;;;;;;14.25;13.00;;;;;;;;8893297;40;10967;-66
2021/07/24 13:29:04;;;;;;;;;12.00;12.00;;;;;;;;8897658;40;10360;-66
2021/07/24 13:35:08;;;;;;;;;16.50;14.00;;;;;;;;8897022;40;11238;-67
2021/07/24 13:41:11;;;;;;;;;9.75;9.75;;;;;;;;8896525;40;11173;-66
2021/07/24 13:47:22;;;;;;;;;13.00;12.25;;;;;;;;8887540;40;10452;-67
2021/07/24 13:53:24;;;;;;;;;12.00;12.00;;;;;;;;8897455;40;10251;-66
2021/07/24 13:59:26;;;;;;;;;11.50;11.50;;;;;;;;8887587;40;10263;-65
2021/07/24 14:05:29;;;;;;;;;19.75;17.00;;;;;;;;8897154;40;10362;-66
2021/07/24 14:11:31;;;;;;;;;16.75;14.50;;;;;;;;8898297;40;10493;-66
2021/07/24 14:17:33;;;;;;;;;16.25;16.25;;;;;;;;8897478;40;10418;-66
2021/07/24 14:23:35;;;;;;;;;19.25;19.25;;;;;;;;8896359;40;10493;-65
2021/07/24 14:29:38;;;;;;;;;14.75;12.50;;;;;;;;8897370;40;10325;-67
2021/07/24 14:35:40;;;;;;;;;13.00;13.00;;;;;;;;8896790;40;10238;-66
2021/07/24 14:41:43;;;;;;;;;14.50;13.25;;;;;;;;8895321;40;11147;-66
2021/07/24 14:47:46;;;;;;;;;13.25;12.00;;;;;;;;8886679;40;10598;-65
2021/07/24 14:53:50;;;;;;;;;12.25;12.25;;;;;;;;8886156;40;10374;-66
2021/07/24 14:59:52;;;;;;;;;10.75;10.75;;;;;;;;8896378;40;10333;-68
2021/07/24 15:05:54;;;;;;;;;14.75;10.25;;;;;;;;8896060;40;10512;-67
2021/07/24 15:11:57;;;;;;;;;12.50;11.50;;;;;;;;8886012;40;10340;-66
2021/07/24 15:18:00;;;;;;;;;16.25;15.25;;;;;;;;8896387;40;10547;-66
2021/07/24 15:24:03;;;;;;;;;11.75;11.75;;;;;;;;8895238;40;10272;-67
2021/07/24 15:30:06;;;;;;;;;12.25;10.00;;;;;;;;8896467;40;10549;-66
2021/07/24 15:36:12;;;;;;;;;11.50;10.25;;;;;;;;8895059;40;10344;-66
2021/07/24 15:42:14;;;;;;;;;13.25;12.25;;;;;;;;8895170;40;10260;-66
2021/07/24 15:48:17;;;;;;;;;17.50;12.75;;;;;;;;8895921;40;11198;-66
2021/07/24 15:54:19;;;;;;;;;16.00;14.50;;;;;;;;8895833;40;10408;-67
2021/07/24 16:00:21;;;;;;;;;14.75;13.75;;;;;;;;8885797;40;10517;-67
2021/07/24 16:06:23;;;;;;;;;17.00;14.00;;;;;;;;8895801;40;10423;-68
2021/07/24 16:12:25;;;;;;;;;16.50;15.25;;;;;;;;8894360;40;10521;-65
2021/07/24 16:18:48;;;;;;;;;16.75;15.00;;;;;;;;8885479;40;10433;-66
2021/07/24 16:24:51;;;;;;;;;16.50;16.50;;;;;;;;8895240;40;10424;-66
2021/07/24 16:30:53;;;;;;;;;13.50;13.50;;;;;;;;8894415;40;10421;-66
2021/07/24 16:36:56;;;;;;;;;12.75;12.75;;;;;;;;8894542;40;10553;-66
2021/07/24 16:42:58;;;;;;;;;18.75;16.75;;;;;;;;8894258;40;10586;-66
2021/07/24 16:49:00;;;;;;;;;14.75;14.75;;;;;;;;8895656;40;10385;-66
2021/07/24 16:55:03;;;;;;;;;14.50;14.50;;;;;;;;8894033;40;11029;-67
2021/07/24 17:01:13;;;;;;;;;20.00;18.75;;;;;;;;8895386;40;10444;-67
2021/07/24 17:07:16;;;;;;;;;21.50;17.75;;;;;;;;8898733;40;10431;-65
2021/07/24 17:13:18;;;;;;;;;19.00;16.50;;;;;;;;8897677;40;10448;-66
2021/07/24 17:19:20;;;;;;;;;15.25;14.75;;;;;;;;8897896;40;10563;-66
2021/07/24 17:25:22;;;;;;;;;19.75;18.75;;;;;;;;8880455;40;10385;-66
2021/07/24 17:31:25;;;;;;;;;18.50;16.00;;;;;;;;8888035;40;10588;-66
2021/07/24 17:37:29;;;;;;;;;19.50;17.25;;;;;;;;8897037;40;10336;-67
2021/07/24 17:43:31;;;;;;;;;22.00;19.50;;;;;;;;8897460;40;10412;-65
2021/07/24 17:49:33;;;;;;;;;19.25;15.50;;;;;;;;8897364;40;10384;-65
2021/07/24 17:55:35;;;;;;;;;24.75;23.00;;;;;;;;8897134;40;10319;-67
2021/07/24 18:01:37;;;;;;;;;19.75;18.75;;;;;;;;8888561;40;10795;-67
2021/07/24 18:07:40;;;;;;;;;18.00;17.25;;;;;;;;8897901;40;10320;-66
2021/07/24 18:13:42;;;;;;;;;17.75;16.50;;;;;;;;8896928;40;10666;-66
2021/07/24 18:19:45;;;;;;;;;20.25;20.25;;;;;;;;8899040;40;10508;-66
2021/07/24 18:25:47;;;;;;;;;18.00;18.00;;;;;;;;8896603;40;10405;-66
2021/07/24 18:31:49;;;;;;;;;19.00;17.50;;;;;;;;8897088;40;10693;-65
2021/07/24 18:37:52;;;;;;;;;22.50;20.75;;;;;;;;8887113;40;10453;-65
2021/07/24 18:43:54;;;;;;;;;19.00;17.25;;;;;;;;8896544;40;10524;-65
2021/07/24 18:49:56;;;;;;;;;25.50;21.50;;;;;;;;8897003;40;10766;-66
2021/07/24 18:55:58;;;;;;;;;24.25;23.00;;;;;;;;8895870;40;10654;-66
2021/07/24 19:02:00;;;;;;;;;22.75;21.50;;;;;;;;8896797;40;10650;-66
2021/07/24 19:08:03;;;;;;;;;25.50;22.75;;;;;;;;8887197;40;10486;-66
2021/07/24 19:14:05;;;;;;;;;25.25;23.25;;;;;;;;8896030;40;11121;-66
2021/07/24 19:20:08;;;;;;;;;24.50;24.50;;;;;;;;8896175;40;10664;-65
2021/07/24 19:26:10;;;;;;;;;24.00;21.75;;;;;;;;8885867;40;11583;-67
2021/07/24 19:32:12;;;;;;;;;23.00;23.00;;;;;;;;8886066;40;10882;-65
2021/07/24 19:38:14;;;;;;;;;30.00;26.75;;;;;;;;8889092;40;11036;-65
2021/07/24 19:44:16;;;;;;;;;28.00;24.75;;;;;;;;8648083;40;10001273;-64
2021/07/24 19:50:19;;;;;;;;;21.50;21.50;;;;;;;;8885792;40;10678;-64
2021/07/24 19:56:22;;;;;;;;;22.50;20.75;;;;;;;;8885620;40;10574;-66
2021/07/24 20:02:24;;;;;;;;;25.75;23.50;;;;;;;;8895461;40;11479;-66
2021/07/24 20:08:28;;;;;;;;;24.00;23.00;;;;;;;;8896070;40;10642;-68
2021/07/24 20:14:30;;;;;;;;;24.00;24.00;;;;;;;;8894811;40;10671;-65
2021/07/24 20:20:33;;;;;;;;;28.75;25.75;;;;;;;;8895037;40;11116;-65
2021/07/24 20:26:35;;;;;;;;;25.75;25.75;;;;;;;;8895217;40;10821;-66
2021/07/24 20:32:38;;;;;;;;;35.50;30.00;;;;;;;;8894943;40;11645;-67
2021/07/24 20:38:40;;;;;;;;;27.00;22.00;;;;;;;;8892746;40;10982;-66
2021/07/24 20:44:42;;;;;;;;;24.50;22.50;;;;;;;;8894305;40;10653;-66
2021/07/24 20:50:44;;;;;;;;;22.00;19.00;;;;;;;;8884785;40;11286;-66
2021/07/24 20:56:46;;;;;;;;;18.50;18.50;;;;;;;;8894872;40;10665;-65
2021/07/24 21:02:50;;;;;;;;;20.75;20.50;;;;;;;;8894084;40;10725;-65
2021/07/24 21:08:53;;;;;;;;;20.00;19.00;;;;;;;;8893710;40;10738;-67
2021/07/24 21:14:55;;;;;;;;;19.00;18.75;;;;;;;;8894416;40;10767;-66
2021/07/24 21:20:58;;;;;;;;;21.50;18.75;;;;;;;;8893845;40;10803;-66
2021/07/24 21:27:00;;;;;;;;;21.00;18.75;;;;;;;;8883464;40;11303;-65
2021/07/24 21:33:02;;;;;;;;;22.00;22.00;;;;;;;;8892804;40;11114;-66
2021/07/24 21:39:04;;;;;;;;;16.75;14.75;;;;;;;;8892521;40;10714;-65
2021/07/24 21:45:07;;;;;;;;;19.00;17.50;;;;;;;;8893060;40;10627;-66
2021/07/24 21:51:09;;;;;;;;;23.25;21.00;;;;;;;;8897591;40;10891;-66
2021/07/24 21:57:12;;;;;;;;;22.50;20.50;;;;;;;;8897627;40;10811;-66
2021/07/24 22:03:15;;;;;;;;;25.33;24.67;;;;;;;;8887812;40;10044;-66
2021/07/24 22:09:18;;;;;;;;;27.75;26.00;;;;;;;;8887181;40;10732;-66
2021/07/24 22:15:20;;;;;;;;;33.33;31.33;;;;;;;;8896466;40;10542;-65
2021/07/24 22:21:27;;;;;;;;;30.00;27.33;;;;;;;;8896392;40;10117;-66
2021/07/24 22:27:39;;;;;;;;;31.00;29.00;;;;;;;;8895980;40;10633;-65
2021/07/24 22:33:41;;;;;;;;;29.00;26.33;;;;;;;;8896327;40;9935;-65
2021/07/24 22:39:43;;;;;;;;;27.00;25.33;;;;;;;;8897339;40;9912;-66
2021/07/24 22:45:45;;;;;;;;;29.67;28.67;;;;;;;;8896522;40;11029;-65
2021/07/24 22:51:47;;;;;;;;;29.67;27.33;;;;;;;;8898117;40;10077;-65
2021/07/24 22:57:49;;;;;;;;;30.67;27.00;;;;;;;;8894980;40;10431;-65
2021/07/24 23:03:52;;;;;;;;;25.33;23.00;;;;;;;;8896140;40;9894;-65
2021/07/24 23:09:54;;;;;;;;;29.67;22.00;;;;;;;;8896709;40;9942;-66
2021/07/24 23:15:56;;;;;;;;;23.00;21.67;;;;;;;;8895731;40;9950;-66
2021/07/24 23:21:58;;;;;;;;;28.33;24.00;;;;;;;;8895583;40;9925;-66
2021/07/24 23:28:00;;;;;;;;;24.33;22.67;;;;;;;;8894995;40;10036;-65
2021/07/24 23:34:03;;;;;;;;;24.00;22.67;;;;;;;;8896329;40;9996;-65
2021/07/24 23:40:05;;;;;;;;;23.67;22.00;;;;;;;;8895257;40;10098;-65
2021/07/24 23:46:14;;;;;;;;;26.67;23.67;;;;;;;;8895512;40;9911;-66
2021/07/24 23:52:16;;;;;;;;;28.00;25.00;;;;;;;;8895488;40;9909;-66
2021/07/24 23:58:19;;;;;;;;;23.67;23.67;;;;;;;;8895545;40;9909;-66
